sensor_id;sensor_type;location;lat;lon;timestamp;P1;durP1;ratioP1;P2;durP2;ratioP2
9665;SDS011;4871;52.004;5.924;2022-12-18T00:00:00;30.80;;;16.20;;
9665;SDS011;4871;52.004;5.924;2022-12-18T00:01:13;30.80;;;16.20;;
9665;SDS011;4871;52.004;5.924;2022-12-18T00:02:00;30.80;;;16.20;;
9665;SDS011;4871;52.004;5.924;2022-12-18T00:03:05;30.80;;;16.20;;
9665;SDS011;4871;52.004;5.924;2022-12-18T00:04:01;30.80;;;16.20;;
9665;SDS011;4871;52.004;5.924;2022-12-18T00:05:03;30.80;;;16.20;;
9665;SDS011;4871;52.004;5.924;2022-12-18T00:06:00;30.80;;;16.20;;
9665;SDS011;4871;52.004;5.924;2022-12-18T00:07:05;30.80;;;16.20;;
9665;SDS011;4871;52.004;5.924;2022-12-18T00:08:00;30.80;;;16.20;;
9665;SDS011;4871;52.004;5.924;2022-12-18T00:09:06;30.80;;;16.20;;
9665;SDS011;4871;52.004;5.924;2022-12-18T00:10:00;30.80;;;16.20;;
9665;SDS011;4871;52.004;5.924;2022-12-18T00:11:05;30.80;;;16.20;;
9665;SDS011;4871;52.004;5.924;2022-12-18T00:12:00;30.80;;;16.20;;
9665;SDS011;4871;52.004;5.924;2022-12-18T00:13:05;32.00;;;16.80;;
9665;SDS011;4871;52.004;5.924;2022-12-18T00:14:00;32.00;;;16.80;;
9665;SDS011;4871;52.004;5.924;2022-12-18T00:15:03;32.00;;;16.80;;
9665;SDS011;4871;52.004;5.924;2022-12-18T00:16:04;32.00;;;16.80;;
9665;SDS011;4871;52.004;5.924;2022-12-18T00:17:03;32.00;;;16.80;;
9665;SDS011;4871;52.004;5.924;2022-12-18T00:18:00;32.00;;;16.80;;
9665;SDS011;4871;52.004;5.924;2022-12-18T00:19:05;32.00;;;16.80;;
9665;SDS011;4871;52.004;5.924;2022-12-18T00:20:00;32.00;;;16.80;;
9665;SDS011;4871;52.004;5.924;2022-12-18T00:21:05;32.00;;;16.80;;
9665;SDS011;4871;52.004;5.924;2022-12-18T00:22:00;32.00;;;16.80;;
9665;SDS011;4871;52.004;5.924;2022-12-18T00:23:05;32.00;;;16.80;;
9665;SDS011;4871;52.004;5.924;2022-12-18T00:24:00;32.00;;;16.80;;
9665;SDS011;4871;52.004;5.924;2022-12-18T00:25:04;32.00;;;16.80;;
9665;SDS011;4871;52.004;5.924;2022-12-18T00:26:01;32.00;;;16.80;;
9665;SDS011;4871;52.004;5.924;2022-12-18T00:27:06;32.00;;;16.80;;
9665;SDS011;4871;52.004;5.924;2022-12-18T00:28:01;32.00;;;16.80;;
9665;SDS011;4871;52.004;5.924;2022-12-18T00:29:07;32.00;;;16.80;;
9665;SDS011;4871;52.004;5.924;2022-12-18T00:30:00;32.00;;;16.80;;
9665;SDS011;4871;52.004;5.924;2022-12-18T00:31:05;32.00;;;16.80;;
9665;SDS011;4871;52.004;5.924;2022-12-18T00:32:00;32.00;;;16.80;;
9665;SDS011;4871;52.004;5.924;2022-12-18T00:33:04;32.00;;;16.80;;
9665;SDS011;4871;52.004;5.924;2022-12-18T00:34:01;32.00;;;16.80;;
9665;SDS011;4871;52.004;5.924;2022-12-18T00:35:04;32.00;;;16.80;;
9665;SDS011;4871;52.004;5.924;2022-12-18T00:36:02;32.00;;;16.80;;
9665;SDS011;4871;52.004;5.924;2022-12-18T00:37:04;32.00;;;16.80;;
9665;SDS011;4871;52.004;5.924;2022-12-18T00:38:00;32.00;;;16.80;;
9665;SDS011;4871;52.004;5.924;2022-12-18T00:39:04;32.00;;;16.80;;
9665;SDS011;4871;52.004;5.924;2022-12-18T00:40:00;32.00;;;16.80;;
9665;SDS011;4871;52.004;5.924;2022-12-18T00:41:04;32.00;;;16.80;;
9665;SDS011;4871;52.004;5.924;2022-12-18T00:42:10;32.00;;;16.80;;
9665;SDS011;4871;52.004;5.924;2022-12-18T00:43:03;27.00;;;14.90;;
9665;SDS011;4871;52.004;5.924;2022-12-18T00:44:00;27.00;;;14.90;;
9665;SDS011;4871;52.004;5.924;2022-12-18T00:45:05;27.00;;;14.90;;
9665;SDS011;4871;52.004;5.924;2022-12-18T00:46:00;27.00;;;14.90;;
9665;SDS011;4871;52.004;5.924;2022-12-18T00:47:04;27.00;;;14.90;;
9665;SDS011;4871;52.004;5.924;2022-12-18T00:48:00;27.00;;;14.90;;
9665;SDS011;4871;52.004;5.924;2022-12-18T00:49:04;27.00;;;14.90;;
9665;SDS011;4871;52.004;5.924;2022-12-18T00:50:00;27.00;;;14.90;;
9665;SDS011;4871;52.004;5.924;2022-12-18T00:51:04;27.00;;;14.90;;
9665;SDS011;4871;52.004;5.924;2022-12-18T00:52:00;27.00;;;14.90;;
9665;SDS011;4871;52.004;5.924;2022-12-18T00:53:03;27.00;;;14.90;;
9665;SDS011;4871;52.004;5.924;2022-12-18T00:54:00;27.00;;;14.90;;
9665;SDS011;4871;52.004;5.924;2022-12-18T00:55:03;27.00;;;14.90;;
9665;SDS011;4871;52.004;5.924;2022-12-18T00:56:00;27.00;;;14.90;;
9665;SDS011;4871;52.004;5.924;2022-12-18T00:57:04;27.00;;;14.90;;
9665;SDS011;4871;52.004;5.924;2022-12-18T00:58:00;27.00;;;14.90;;
9665;SDS011;4871;52.004;5.924;2022-12-18T00:59:04;27.00;;;14.90;;
9665;SDS011;4871;52.004;5.924;2022-12-18T01:00:00;27.00;;;14.90;;
9665;SDS011;4871;52.004;5.924;2022-12-18T01:01:04;27.00;;;14.90;;
9665;SDS011;4871;52.004;5.924;2022-12-18T01:02:00;27.00;;;14.90;;
9665;SDS011;4871;52.004;5.924;2022-12-18T01:03:04;27.00;;;14.90;;
9665;SDS011;4871;52.004;5.924;2022-12-18T01:04:01;27.00;;;14.90;;
9665;SDS011;4871;52.004;5.924;2022-12-18T01:05:05;27.00;;;14.90;;
9665;SDS011;4871;52.004;5.924;2022-12-18T01:06:05;27.00;;;14.90;;
9665;SDS011;4871;52.004;5.924;2022-12-18T01:07:04;27.00;;;14.90;;
9665;SDS011;4871;52.004;5.924;2022-12-18T01:08:00;27.00;;;14.90;;
9665;SDS011;4871;52.004;5.924;2022-12-18T01:09:03;27.00;;;14.90;;
9665;SDS011;4871;52.004;5.924;2022-12-18T01:10:00;27.00;;;14.90;;
9665;SDS011;4871;52.004;5.924;2022-12-18T01:11:07;27.00;;;14.90;;
9665;SDS011;4871;52.004;5.924;2022-12-18T01:12:00;27.00;;;14.90;;
9665;SDS011;4871;52.004;5.924;2022-12-18T01:13:03;27.20;;;14.10;;
9665;SDS011;4871;52.004;5.924;2022-12-18T01:14:00;27.20;;;14.10;;
9665;SDS011;4871;52.004;5.924;2022-12-18T01:15:05;27.20;;;14.10;;
9665;SDS011;4871;52.004;5.924;2022-12-18T01:16:00;27.20;;;14.10;;
9665;SDS011;4871;52.004;5.924;2022-12-18T01:17:03;27.20;;;14.10;;
9665;SDS011;4871;52.004;5.924;2022-12-18T01:18:00;27.20;;;14.10;;
9665;SDS011;4871;52.004;5.924;2022-12-18T01:19:04;27.20;;;14.10;;
9665;SDS011;4871;52.004;5.924;2022-12-18T01:20:00;27.20;;;14.10;;
9665;SDS011;4871;52.004;5.924;2022-12-18T01:21:12;27.20;;;14.10;;
9665;SDS011;4871;52.004;5.924;2022-12-18T01:22:00;27.20;;;14.10;;
9665;SDS011;4871;52.004;5.924;2022-12-18T01:23:04;27.20;;;14.10;;
9665;SDS011;4871;52.004;5.924;2022-12-18T01:24:00;27.20;;;14.10;;
9665;SDS011;4871;52.004;5.924;2022-12-18T01:25:05;27.20;;;14.10;;
9665;SDS011;4871;52.004;5.924;2022-12-18T01:26:04;27.20;;;14.10;;
9665;SDS011;4871;52.004;5.924;2022-12-18T01:27:05;27.20;;;14.10;;
9665;SDS011;4871;52.004;5.924;2022-12-18T01:28:01;27.20;;;14.10;;
9665;SDS011;4871;52.004;5.924;2022-12-18T01:29:07;27.20;;;14.10;;
9665;SDS011;4871;52.004;5.924;2022-12-18T01:30:00;27.20;;;14.10;;
9665;SDS011;4871;52.004;5.924;2022-12-18T01:31:12;27.20;;;14.10;;
9665;SDS011;4871;52.004;5.924;2022-12-18T01:32:00;27.20;;;14.10;;
9665;SDS011;4871;52.004;5.924;2022-12-18T01:33:04;27.20;;;14.10;;
9665;SDS011;4871;52.004;5.924;2022-12-18T01:34:00;27.20;;;14.10;;
9665;SDS011;4871;52.004;5.924;2022-12-18T01:35:04;27.20;;;14.10;;
9665;SDS011;4871;52.004;5.924;2022-12-18T01:36:00;27.20;;;14.10;;
9665;SDS011;4871;52.004;5.924;2022-12-18T01:37:04;27.20;;;14.10;;
9665;SDS011;4871;52.004;5.924;2022-12-18T01:38:00;27.20;;;14.10;;
9665;SDS011;4871;52.004;5.924;2022-12-18T01:39:06;27.20;;;14.10;;
9665;SDS011;4871;52.004;5.924;2022-12-18T01:40:00;27.20;;;14.10;;
9665;SDS011;4871;52.004;5.924;2022-12-18T01:41:04;27.20;;;14.10;;
9665;SDS011;4871;52.004;5.924;2022-12-18T01:43:04;23.90;;;13.00;;
9665;SDS011;4871;52.004;5.924;2022-12-18T01:44:00;23.90;;;13.00;;
9665;SDS011;4871;52.004;5.924;2022-12-18T01:45:28;23.90;;;13.00;;
9665;SDS011;4871;52.004;5.924;2022-12-18T01:46:00;23.90;;;13.00;;
9665;SDS011;4871;52.004;5.924;2022-12-18T01:47:04;23.90;;;13.00;;
9665;SDS011;4871;52.004;5.924;2022-12-18T01:48:01;23.90;;;13.00;;
9665;SDS011;4871;52.004;5.924;2022-12-18T01:49:05;23.90;;;13.00;;
9665;SDS011;4871;52.004;5.924;2022-12-18T01:50:03;23.90;;;13.00;;
9665;SDS011;4871;52.004;5.924;2022-12-18T01:51:04;23.90;;;13.00;;
9665;SDS011;4871;52.004;5.924;2022-12-18T01:52:00;23.90;;;13.00;;
9665;SDS011;4871;52.004;5.924;2022-12-18T01:53:06;23.90;;;13.00;;
9665;SDS011;4871;52.004;5.924;2022-12-18T01:54:00;23.90;;;13.00;;
9665;SDS011;4871;52.004;5.924;2022-12-18T01:55:05;23.90;;;13.00;;
9665;SDS011;4871;52.004;5.924;2022-12-18T01:56:00;23.90;;;13.00;;
9665;SDS011;4871;52.004;5.924;2022-12-18T01:57:04;23.90;;;13.00;;
9665;SDS011;4871;52.004;5.924;2022-12-18T01:58:00;23.90;;;13.00;;
9665;SDS011;4871;52.004;5.924;2022-12-18T01:59:06;23.90;;;13.00;;
9665;SDS011;4871;52.004;5.924;2022-12-18T02:00:04;23.90;;;13.00;;
9665;SDS011;4871;52.004;5.924;2022-12-18T02:01:05;23.90;;;13.00;;
9665;SDS011;4871;52.004;5.924;2022-12-18T02:02:00;23.90;;;13.00;;
9665;SDS011;4871;52.004;5.924;2022-12-18T02:03:05;23.90;;;13.00;;
9665;SDS011;4871;52.004;5.924;2022-12-18T02:05:04;23.90;;;13.00;;
9665;SDS011;4871;52.004;5.924;2022-12-18T02:06:07;23.90;;;13.00;;
9665;SDS011;4871;52.004;5.924;2022-12-18T02:07:07;23.90;;;13.00;;
9665;SDS011;4871;52.004;5.924;2022-12-18T02:08:08;23.90;;;13.00;;
9665;SDS011;4871;52.004;5.924;2022-12-18T02:09:08;23.90;;;13.00;;
9665;SDS011;4871;52.004;5.924;2022-12-18T02:12:04;23.90;;;13.00;;
9665;SDS011;4871;52.004;5.924;2022-12-18T02:14:52;27.60;;;13.80;;
9665;SDS011;4871;52.004;5.924;2022-12-18T02:15:07;27.60;;;13.80;;
9665;SDS011;4871;52.004;5.924;2022-12-18T02:17:07;27.60;;;13.80;;
9665;SDS011;4871;52.004;5.924;2022-12-18T02:18:09;27.60;;;13.80;;
9665;SDS011;4871;52.004;5.924;2022-12-18T02:19:06;27.60;;;13.80;;
9665;SDS011;4871;52.004;5.924;2022-12-18T02:21:08;27.60;;;13.80;;
9665;SDS011;4871;52.004;5.924;2022-12-18T02:25:10;27.60;;;13.80;;
9665;SDS011;4871;52.004;5.924;2022-12-18T02:27:05;27.60;;;13.80;;
9665;SDS011;4871;52.004;5.924;2022-12-18T02:28:01;27.60;;;13.80;;
9665;SDS011;4871;52.004;5.924;2022-12-18T02:29:07;27.60;;;13.80;;
9665;SDS011;4871;52.004;5.924;2022-12-18T02:30:01;27.60;;;13.80;;
9665;SDS011;4871;52.004;5.924;2022-12-18T02:31:06;27.60;;;13.80;;
9665;SDS011;4871;52.004;5.924;2022-12-18T02:32:00;27.60;;;13.80;;
9665;SDS011;4871;52.004;5.924;2022-12-18T02:33:04;27.60;;;13.80;;
9665;SDS011;4871;52.004;5.924;2022-12-18T02:34:01;27.60;;;13.80;;
9665;SDS011;4871;52.004;5.924;2022-12-18T02:35:04;27.60;;;13.80;;
9665;SDS011;4871;52.004;5.924;2022-12-18T02:36:00;27.60;;;13.80;;
9665;SDS011;4871;52.004;5.924;2022-12-18T02:37:04;27.60;;;13.80;;
9665;SDS011;4871;52.004;5.924;2022-12-18T02:38:00;27.60;;;13.80;;
9665;SDS011;4871;52.004;5.924;2022-12-18T02:39:03;27.60;;;13.80;;
9665;SDS011;4871;52.004;5.924;2022-12-18T02:40:00;27.60;;;13.80;;
9665;SDS011;4871;52.004;5.924;2022-12-18T02:41:05;27.60;;;13.80;;
9665;SDS011;4871;52.004;5.924;2022-12-18T02:42:02;27.60;;;13.80;;
9665;SDS011;4871;52.004;5.924;2022-12-18T02:43:08;21.80;;;11.10;;
9665;SDS011;4871;52.004;5.924;2022-12-18T02:44:01;21.80;;;11.10;;
9665;SDS011;4871;52.004;5.924;2022-12-18T02:45:05;21.80;;;11.10;;
9665;SDS011;4871;52.004;5.924;2022-12-18T02:46:00;21.80;;;11.10;;
9665;SDS011;4871;52.004;5.924;2022-12-18T02:47:03;21.80;;;11.10;;
9665;SDS011;4871;52.004;5.924;2022-12-18T02:48:00;21.80;;;11.10;;
9665;SDS011;4871;52.004;5.924;2022-12-18T02:49:20;21.80;;;11.10;;
9665;SDS011;4871;52.004;5.924;2022-12-18T02:50:03;21.80;;;11.10;;
9665;SDS011;4871;52.004;5.924;2022-12-18T02:52:05;21.80;;;11.10;;
9665;SDS011;4871;52.004;5.924;2022-12-18T02:53:10;21.80;;;11.10;;
9665;SDS011;4871;52.004;5.924;2022-12-18T02:54:05;21.80;;;11.10;;
9665;SDS011;4871;52.004;5.924;2022-12-18T02:55:07;21.80;;;11.10;;
9665;SDS011;4871;52.004;5.924;2022-12-18T02:56:17;21.80;;;11.10;;
9665;SDS011;4871;52.004;5.924;2022-12-18T02:57:14;21.80;;;11.10;;
9665;SDS011;4871;52.004;5.924;2022-12-18T02:58:03;21.80;;;11.10;;
9665;SDS011;4871;52.004;5.924;2022-12-18T02:59:06;21.80;;;11.10;;
9665;SDS011;4871;52.004;5.924;2022-12-18T03:01:14;21.80;;;11.10;;
9665;SDS011;4871;52.004;5.924;2022-12-18T03:02:04;21.80;;;11.10;;
9665;SDS011;4871;52.004;5.924;2022-12-18T03:03:09;21.80;;;11.10;;
9665;SDS011;4871;52.004;5.924;2022-12-18T03:04:03;21.80;;;11.10;;
9665;SDS011;4871;52.004;5.924;2022-12-18T03:05:09;21.80;;;11.10;;
9665;SDS011;4871;52.004;5.924;2022-12-18T03:06:02;21.80;;;11.10;;
9665;SDS011;4871;52.004;5.924;2022-12-18T03:07:05;21.80;;;11.10;;
9665;SDS011;4871;52.004;5.924;2022-12-18T03:09:06;21.80;;;11.10;;
9665;SDS011;4871;52.004;5.924;2022-12-18T03:10:00;21.80;;;11.10;;
9665;SDS011;4871;52.004;5.924;2022-12-18T03:11:09;21.80;;;11.10;;
9665;SDS011;4871;52.004;5.924;2022-12-18T03:13:08;16.70;;;9.10;;
9665;SDS011;4871;52.004;5.924;2022-12-18T03:14:00;16.70;;;9.10;;
9665;SDS011;4871;52.004;5.924;2022-12-18T03:15:08;16.70;;;9.10;;
9665;SDS011;4871;52.004;5.924;2022-12-18T03:16:00;16.70;;;9.10;;
9665;SDS011;4871;52.004;5.924;2022-12-18T03:17:03;16.70;;;9.10;;
9665;SDS011;4871;52.004;5.924;2022-12-18T03:18:02;16.70;;;9.10;;
9665;SDS011;4871;52.004;5.924;2022-12-18T03:19:06;16.70;;;9.10;;
9665;SDS011;4871;52.004;5.924;2022-12-18T03:20:06;16.70;;;9.10;;
9665;SDS011;4871;52.004;5.924;2022-12-18T03:21:05;16.70;;;9.10;;
9665;SDS011;4871;52.004;5.924;2022-12-18T03:22:01;16.70;;;9.10;;
9665;SDS011;4871;52.004;5.924;2022-12-18T03:23:07;16.70;;;9.10;;
9665;SDS011;4871;52.004;5.924;2022-12-18T03:24:00;16.70;;;9.10;;
9665;SDS011;4871;52.004;5.924;2022-12-18T03:25:06;16.70;;;9.10;;
9665;SDS011;4871;52.004;5.924;2022-12-18T03:26:00;16.70;;;9.10;;
9665;SDS011;4871;52.004;5.924;2022-12-18T03:27:05;16.70;;;9.10;;
9665;SDS011;4871;52.004;5.924;2022-12-18T03:28:00;16.70;;;9.10;;
9665;SDS011;4871;52.004;5.924;2022-12-18T03:29:06;16.70;;;9.10;;
9665;SDS011;4871;52.004;5.924;2022-12-18T03:30:08;16.70;;;9.10;;
9665;SDS011;4871;52.004;5.924;2022-12-18T03:31:04;16.70;;;9.10;;
9665;SDS011;4871;52.004;5.924;2022-12-18T03:32:02;16.70;;;9.10;;
9665;SDS011;4871;52.004;5.924;2022-12-18T03:33:10;16.70;;;9.10;;
9665;SDS011;4871;52.004;5.924;2022-12-18T03:34:02;16.70;;;9.10;;
9665;SDS011;4871;52.004;5.924;2022-12-18T03:35:04;16.70;;;9.10;;
9665;SDS011;4871;52.004;5.924;2022-12-18T03:36:00;16.70;;;9.10;;
9665;SDS011;4871;52.004;5.924;2022-12-18T03:37:05;16.70;;;9.10;;
9665;SDS011;4871;52.004;5.924;2022-12-18T03:38:00;16.70;;;9.10;;
9665;SDS011;4871;52.004;5.924;2022-12-18T03:39:04;16.70;;;9.10;;
9665;SDS011;4871;52.004;5.924;2022-12-18T03:40:00;16.70;;;9.10;;
9665;SDS011;4871;52.004;5.924;2022-12-18T03:41:06;16.70;;;9.10;;
9665;SDS011;4871;52.004;5.924;2022-12-18T03:43:08;19.90;;;10.30;;
9665;SDS011;4871;52.004;5.924;2022-12-18T03:44:11;19.90;;;10.30;;
9665;SDS011;4871;52.004;5.924;2022-12-18T03:45:09;19.90;;;10.30;;
9665;SDS011;4871;52.004;5.924;2022-12-18T03:47:07;19.90;;;10.30;;
9665;SDS011;4871;52.004;5.924;2022-12-18T03:48:01;19.90;;;10.30;;
9665;SDS011;4871;52.004;5.924;2022-12-18T03:49:07;19.90;;;10.30;;
9665;SDS011;4871;52.004;5.924;2022-12-18T03:51:05;19.90;;;10.30;;
9665;SDS011;4871;52.004;5.924;2022-12-18T03:53:08;19.90;;;10.30;;
9665;SDS011;4871;52.004;5.924;2022-12-18T03:54:01;19.90;;;10.30;;
9665;SDS011;4871;52.004;5.924;2022-12-18T03:55:05;19.90;;;10.30;;
9665;SDS011;4871;52.004;5.924;2022-12-18T03:56:00;19.90;;;10.30;;
9665;SDS011;4871;52.004;5.924;2022-12-18T03:57:04;19.90;;;10.30;;
9665;SDS011;4871;52.004;5.924;2022-12-18T03:58:01;19.90;;;10.30;;
9665;SDS011;4871;52.004;5.924;2022-12-18T03:59:03;19.90;;;10.30;;
9665;SDS011;4871;52.004;5.924;2022-12-18T04:00:03;19.90;;;10.30;;
9665;SDS011;4871;52.004;5.924;2022-12-18T04:01:05;19.90;;;10.30;;
9665;SDS011;4871;52.004;5.924;2022-12-18T04:02:00;19.90;;;10.30;;
9665;SDS011;4871;52.004;5.924;2022-12-18T04:03:03;19.90;;;10.30;;
9665;SDS011;4871;52.004;5.924;2022-12-18T04:04:00;19.90;;;10.30;;
9665;SDS011;4871;52.004;5.924;2022-12-18T04:05:05;19.90;;;10.30;;
9665;SDS011;4871;52.004;5.924;2022-12-18T04:06:00;19.90;;;10.30;;
9665;SDS011;4871;52.004;5.924;2022-12-18T04:07:04;19.90;;;10.30;;
9665;SDS011;4871;52.004;5.924;2022-12-18T04:08:00;19.90;;;10.30;;
9665;SDS011;4871;52.004;5.924;2022-12-18T04:09:04;19.90;;;10.30;;
9665;SDS011;4871;52.004;5.924;2022-12-18T04:10:00;19.90;;;10.30;;
9665;SDS011;4871;52.004;5.924;2022-12-18T04:11:03;19.90;;;10.30;;
9665;SDS011;4871;52.004;5.924;2022-12-18T04:12:00;13.90;;;8.50;;
9665;SDS011;4871;52.004;5.924;2022-12-18T04:13:06;13.90;;;8.50;;
9665;SDS011;4871;52.004;5.924;2022-12-18T04:14:00;13.90;;;8.50;;
9665;SDS011;4871;52.004;5.924;2022-12-18T04:15:03;13.90;;;8.50;;
9665;SDS011;4871;52.004;5.924;2022-12-18T04:16:01;13.90;;;8.50;;
9665;SDS011;4871;52.004;5.924;2022-12-18T04:17:05;13.90;;;8.50;;
9665;SDS011;4871;52.004;5.924;2022-12-18T04:18:00;13.90;;;8.50;;
9665;SDS011;4871;52.004;5.924;2022-12-18T04:19:04;13.90;;;8.50;;
9665;SDS011;4871;52.004;5.924;2022-12-18T04:20:00;13.90;;;8.50;;
9665;SDS011;4871;52.004;5.924;2022-12-18T04:21:03;13.90;;;8.50;;
9665;SDS011;4871;52.004;5.924;2022-12-18T04:22:00;13.90;;;8.50;;
9665;SDS011;4871;52.004;5.924;2022-12-18T04:23:04;13.90;;;8.50;;
9665;SDS011;4871;52.004;5.924;2022-12-18T04:24:00;13.90;;;8.50;;
9665;SDS011;4871;52.004;5.924;2022-12-18T04:25:04;13.90;;;8.50;;
9665;SDS011;4871;52.004;5.924;2022-12-18T04:26:00;13.90;;;8.50;;
9665;SDS011;4871;52.004;5.924;2022-12-18T04:27:05;13.90;;;8.50;;
9665;SDS011;4871;52.004;5.924;2022-12-18T04:28:00;13.90;;;8.50;;
9665;SDS011;4871;52.004;5.924;2022-12-18T04:29:04;13.90;;;8.50;;
9665;SDS011;4871;52.004;5.924;2022-12-18T04:30:00;13.90;;;8.50;;
9665;SDS011;4871;52.004;5.924;2022-12-18T04:31:04;13.90;;;8.50;;
9665;SDS011;4871;52.004;5.924;2022-12-18T04:32:00;13.90;;;8.50;;
9665;SDS011;4871;52.004;5.924;2022-12-18T04:33:07;13.90;;;8.50;;
9665;SDS011;4871;52.004;5.924;2022-12-18T04:34:00;13.90;;;8.50;;
9665;SDS011;4871;52.004;5.924;2022-12-18T04:35:04;13.90;;;8.50;;
9665;SDS011;4871;52.004;5.924;2022-12-18T04:36:00;13.90;;;8.50;;
9665;SDS011;4871;52.004;5.924;2022-12-18T04:37:06;13.90;;;8.50;;
9665;SDS011;4871;52.004;5.924;2022-12-18T04:38:00;13.90;;;8.50;;
9665;SDS011;4871;52.004;5.924;2022-12-18T04:39:04;13.90;;;8.50;;
9665;SDS011;4871;52.004;5.924;2022-12-18T04:40:00;13.90;;;8.50;;
9665;SDS011;4871;52.004;5.924;2022-12-18T04:41:05;13.90;;;8.50;;
9665;SDS011;4871;52.004;5.924;2022-12-18T04:42:00;13.40;;;7.20;;
9665;SDS011;4871;52.004;5.924;2022-12-18T04:43:04;13.40;;;7.20;;
9665;SDS011;4871;52.004;5.924;2022-12-18T04:44:00;13.40;;;7.20;;
9665;SDS011;4871;52.004;5.924;2022-12-18T04:45:05;13.40;;;7.20;;
9665;SDS011;4871;52.004;5.924;2022-12-18T04:46:01;13.40;;;7.20;;
9665;SDS011;4871;52.004;5.924;2022-12-18T04:47:03;13.40;;;7.20;;
9665;SDS011;4871;52.004;5.924;2022-12-18T04:48:01;13.40;;;7.20;;
9665;SDS011;4871;52.004;5.924;2022-12-18T04:49:05;13.40;;;7.20;;
9665;SDS011;4871;52.004;5.924;2022-12-18T04:50:00;13.40;;;7.20;;
9665;SDS011;4871;52.004;5.924;2022-12-18T04:51:05;13.40;;;7.20;;
9665;SDS011;4871;52.004;5.924;2022-12-18T04:52:00;13.40;;;7.20;;
9665;SDS011;4871;52.004;5.924;2022-12-18T04:53:03;13.40;;;7.20;;
9665;SDS011;4871;52.004;5.924;2022-12-18T04:54:00;13.40;;;7.20;;
9665;SDS011;4871;52.004;5.924;2022-12-18T04:55:05;13.40;;;7.20;;
9665;SDS011;4871;52.004;5.924;2022-12-18T04:56:02;13.40;;;7.20;;
9665;SDS011;4871;52.004;5.924;2022-12-18T04:57:03;13.40;;;7.20;;
9665;SDS011;4871;52.004;5.924;2022-12-18T04:58:00;13.40;;;7.20;;
9665;SDS011;4871;52.004;5.924;2022-12-18T04:59:05;13.40;;;7.20;;
9665;SDS011;4871;52.004;5.924;2022-12-18T05:00:00;13.40;;;7.20;;
9665;SDS011;4871;52.004;5.924;2022-12-18T05:01:04;13.40;;;7.20;;
9665;SDS011;4871;52.004;5.924;2022-12-18T05:02:00;13.40;;;7.20;;
9665;SDS011;4871;52.004;5.924;2022-12-18T05:03:03;13.40;;;7.20;;
9665;SDS011;4871;52.004;5.924;2022-12-18T05:04:01;13.40;;;7.20;;
9665;SDS011;4871;52.004;5.924;2022-12-18T05:05:04;13.40;;;7.20;;
9665;SDS011;4871;52.004;5.924;2022-12-18T05:06:00;13.40;;;7.20;;
9665;SDS011;4871;52.004;5.924;2022-12-18T05:07:04;13.40;;;7.20;;
9665;SDS011;4871;52.004;5.924;2022-12-18T05:08:00;13.40;;;7.20;;
9665;SDS011;4871;52.004;5.924;2022-12-18T05:09:04;13.40;;;7.20;;
9665;SDS011;4871;52.004;5.924;2022-12-18T05:10:00;13.40;;;7.20;;
9665;SDS011;4871;52.004;5.924;2022-12-18T05:11:05;13.40;;;7.20;;
9665;SDS011;4871;52.004;5.924;2022-12-18T05:12:00;14.10;;;7.10;;
9665;SDS011;4871;52.004;5.924;2022-12-18T05:13:06;14.10;;;7.10;;
9665;SDS011;4871;52.004;5.924;2022-12-18T05:14:00;14.10;;;7.10;;
9665;SDS011;4871;52.004;5.924;2022-12-18T05:15:05;14.10;;;7.10;;
9665;SDS011;4871;52.004;5.924;2022-12-18T05:16:00;14.10;;;7.10;;
9665;SDS011;4871;52.004;5.924;2022-12-18T05:17:04;14.10;;;7.10;;
9665;SDS011;4871;52.004;5.924;2022-12-18T05:18:00;14.10;;;7.10;;
9665;SDS011;4871;52.004;5.924;2022-12-18T05:19:03;14.10;;;7.10;;
9665;SDS011;4871;52.004;5.924;2022-12-18T05:20:00;14.10;;;7.10;;
9665;SDS011;4871;52.004;5.924;2022-12-18T05:21:04;14.10;;;7.10;;
9665;SDS011;4871;52.004;5.924;2022-12-18T05:22:01;14.10;;;7.10;;
9665;SDS011;4871;52.004;5.924;2022-12-18T05:23:03;14.10;;;7.10;;
9665;SDS011;4871;52.004;5.924;2022-12-18T05:24:00;14.10;;;7.10;;
9665;SDS011;4871;52.004;5.924;2022-12-18T05:25:04;14.10;;;7.10;;
9665;SDS011;4871;52.004;5.924;2022-12-18T05:26:02;14.10;;;7.10;;
9665;SDS011;4871;52.004;5.924;2022-12-18T05:27:05;14.10;;;7.10;;
9665;SDS011;4871;52.004;5.924;2022-12-18T05:28:00;14.10;;;7.10;;
9665;SDS011;4871;52.004;5.924;2022-12-18T05:29:03;14.10;;;7.10;;
9665;SDS011;4871;52.004;5.924;2022-12-18T05:30:00;14.10;;;7.10;;
9665;SDS011;4871;52.004;5.924;2022-12-18T05:31:04;14.10;;;7.10;;
9665;SDS011;4871;52.004;5.924;2022-12-18T05:32:00;14.10;;;7.10;;
9665;SDS011;4871;52.004;5.924;2022-12-18T05:33:03;14.10;;;7.10;;
9665;SDS011;4871;52.004;5.924;2022-12-18T05:34:00;14.10;;;7.10;;
9665;SDS011;4871;52.004;5.924;2022-12-18T05:35:07;14.10;;;7.10;;
9665;SDS011;4871;52.004;5.924;2022-12-18T05:36:00;14.10;;;7.10;;
9665;SDS011;4871;52.004;5.924;2022-12-18T05:37:03;14.10;;;7.10;;
9665;SDS011;4871;52.004;5.924;2022-12-18T05:38:00;14.10;;;7.10;;
9665;SDS011;4871;52.004;5.924;2022-12-18T05:39:06;14.10;;;7.10;;
9665;SDS011;4871;52.004;5.924;2022-12-18T05:40:00;14.10;;;7.10;;
9665;SDS011;4871;52.004;5.924;2022-12-18T05:41:04;14.10;;;5.70;;
9665;SDS011;4871;52.004;5.924;2022-12-18T05:42:00;10.90;;;5.70;;
9665;SDS011;4871;52.004;5.924;2022-12-18T05:43:05;10.90;;;5.70;;
9665;SDS011;4871;52.004;5.924;2022-12-18T05:44:00;10.90;;;5.70;;
9665;SDS011;4871;52.004;5.924;2022-12-18T05:45:04;10.90;;;5.70;;
9665;SDS011;4871;52.004;5.924;2022-12-18T05:46:08;10.90;;;5.70;;
9665;SDS011;4871;52.004;5.924;2022-12-18T05:47:04;10.90;;;5.70;;
9665;SDS011;4871;52.004;5.924;2022-12-18T05:48:00;10.90;;;5.70;;
9665;SDS011;4871;52.004;5.924;2022-12-18T05:49:05;10.90;;;5.70;;
9665;SDS011;4871;52.004;5.924;2022-12-18T05:50:00;10.90;;;5.70;;
9665;SDS011;4871;52.004;5.924;2022-12-18T05:51:05;10.90;;;5.70;;
9665;SDS011;4871;52.004;5.924;2022-12-18T05:52:00;10.90;;;5.70;;
9665;SDS011;4871;52.004;5.924;2022-12-18T05:53:05;10.90;;;5.70;;
9665;SDS011;4871;52.004;5.924;2022-12-18T05:54:00;10.90;;;5.70;;
9665;SDS011;4871;52.004;5.924;2022-12-18T05:55:04;10.90;;;5.70;;
9665;SDS011;4871;52.004;5.924;2022-12-18T05:56:01;10.90;;;5.70;;
9665;SDS011;4871;52.004;5.924;2022-12-18T05:57:03;10.90;;;5.70;;
9665;SDS011;4871;52.004;5.924;2022-12-18T05:58:00;10.90;;;5.70;;
9665;SDS011;4871;52.004;5.924;2022-12-18T05:59:03;10.90;;;5.70;;
9665;SDS011;4871;52.004;5.924;2022-12-18T06:00:00;10.90;;;5.70;;
9665;SDS011;4871;52.004;5.924;2022-12-18T06:02:00;10.90;;;5.70;;
9665;SDS011;4871;52.004;5.924;2022-12-18T06:03:06;10.90;;;5.70;;
9665;SDS011;4871;52.004;5.924;2022-12-18T06:04:00;10.90;;;5.70;;
9665;SDS011;4871;52.004;5.924;2022-12-18T06:05:04;10.90;;;5.70;;
9665;SDS011;4871;52.004;5.924;2022-12-18T06:06:00;10.90;;;5.70;;
9665;SDS011;4871;52.004;5.924;2022-12-18T06:07:06;10.90;;;5.70;;
9665;SDS011;4871;52.004;5.924;2022-12-18T06:08:00;10.90;;;5.70;;
9665;SDS011;4871;52.004;5.924;2022-12-18T06:09:08;10.90;;;5.70;;
9665;SDS011;4871;52.004;5.924;2022-12-18T06:10:00;10.90;;;5.70;;
9665;SDS011;4871;52.004;5.924;2022-12-18T06:11:04;13.40;;;7.60;;
9665;SDS011;4871;52.004;5.924;2022-12-18T06:12:00;13.40;;;7.60;;
9665;SDS011;4871;52.004;5.924;2022-12-18T06:13:02;13.40;;;7.60;;
9665;SDS011;4871;52.004;5.924;2022-12-18T06:14:00;13.40;;;7.60;;
9665;SDS011;4871;52.004;5.924;2022-12-18T06:15:05;13.40;;;7.60;;
9665;SDS011;4871;52.004;5.924;2022-12-18T06:16:02;13.40;;;7.60;;
9665;SDS011;4871;52.004;5.924;2022-12-18T06:17:03;13.40;;;7.60;;
9665;SDS011;4871;52.004;5.924;2022-12-18T06:18:00;13.40;;;7.60;;
9665;SDS011;4871;52.004;5.924;2022-12-18T06:19:03;13.40;;;7.60;;
9665;SDS011;4871;52.004;5.924;2022-12-18T06:20:01;13.40;;;7.60;;
9665;SDS011;4871;52.004;5.924;2022-12-18T06:21:03;13.40;;;7.60;;
9665;SDS011;4871;52.004;5.924;2022-12-18T06:22:00;13.40;;;7.60;;
9665;SDS011;4871;52.004;5.924;2022-12-18T06:23:03;13.40;;;7.60;;